createdAt,value
2018-03-02T00:01:32.515Z,-8.66
2018-03-02T00:04:00.034Z,-8.78
2018-03-02T00:06:27.566Z,-8.75
2018-03-02T00:08:55.142Z,-8.82
2018-03-02T00:11:22.728Z,-8.86
2018-03-02T00:13:50.290Z,-8.88
2018-03-02T00:16:17.826Z,-8.85
2018-03-02T00:18:45.346Z,-8.83
2018-03-02T00:21:12.888Z,-8.87
2018-03-02T00:23:40.543Z,-8.91
2018-03-02T00:26:08.108Z,-8.94
2018-03-02T00:28:35.656Z,-8.98
2018-03-02T00:31:03.186Z,-9.01
2018-03-02T00:33:30.737Z,-9.05
2018-03-02T00:35:58.237Z,-9.08
2018-03-02T00:38:25.872Z,-9.08
2018-03-02T00:40:53.479Z,-9.11
2018-03-02T00:43:21.183Z,-9.16
2018-03-02T00:45:48.711Z,-9.12
2018-03-02T00:48:17.160Z,-9.09
2018-03-02T00:50:44.665Z,-9.11
2018-03-02T00:53:12.195Z,-9.14
2018-03-02T00:55:39.773Z,-9.19
2018-03-02T00:58:07.311Z,-9.19
2018-03-02T01:00:34.850Z,-9.26
2018-03-02T01:03:02.383Z,-9.25
2018-03-02T01:05:29.886Z,-9.25
2018-03-02T01:07:57.413Z,-9.22
2018-03-02T01:10:24.972Z,-9.25
2018-03-02T01:12:52.471Z,-9.16
2018-03-02T01:15:20.016Z,-9.31
2018-03-02T01:17:47.568Z,-9.30
2018-03-02T01:20:15.104Z,-9.29
2018-03-02T01:22:42.663Z,-9.27
2018-03-02T01:25:10.154Z,-9.25
2018-03-02T01:27:37.659Z,-9.30
2018-03-02T01:30:05.253Z,-9.26
2018-03-02T01:32:32.756Z,-9.42
2018-03-02T01:35:00.429Z,-9.42
2018-03-02T01:37:27.998Z,-9.52
2018-03-02T01:39:55.542Z,-9.59
2018-03-02T01:42:23.063Z,-9.53
2018-03-02T01:44:50.601Z,-9.48
2018-03-02T01:47:18.159Z,-9.49
2018-03-02T01:49:45.735Z,-9.53
2018-03-02T01:52:13.263Z,-9.62
2018-03-02T01:54:40.790Z,-9.60
2018-03-02T01:57:08.302Z,-9.58
2018-03-02T01:59:35.820Z,-9.57
2018-03-02T02:02:03.495Z,-9.56
2018-03-02T02:04:31.017Z,-9.65
2018-03-02T02:06:58.566Z,-9.60
2018-03-02T02:09:26.063Z,-9.62
2018-03-02T02:11:53.829Z,-9.62
2018-03-02T02:14:21.346Z,-9.70
2018-03-02T02:16:48.897Z,-9.62
2018-03-02T02:19:16.525Z,-9.63
2018-03-02T02:21:44.044Z,-9.57
2018-03-02T02:24:11.621Z,-9.71
2018-03-02T02:26:39.161Z,-9.75
2018-03-02T02:29:06.720Z,-9.82
2018-03-02T02:31:34.218Z,-9.65
2018-03-02T02:34:01.744Z,-9.71
2018-03-02T02:36:29.314Z,-9.72
2018-03-02T02:38:56.954Z,-9.78
2018-03-02T02:41:24.446Z,-9.77
2018-03-02T02:43:51.960Z,-9.78
2018-03-02T02:46:19.494Z,-9.74
2018-03-02T02:48:47.104Z,-9.79
2018-03-02T02:51:14.641Z,-9.87
2018-03-02T02:53:42.226Z,-9.82
2018-03-02T02:56:09.757Z,-9.81
2018-03-02T02:58:37.281Z,-9.85
2018-03-02T03:01:04.793Z,-9.91
2018-03-02T03:03:32.340Z,-9.91
2018-03-02T03:05:59.842Z,-9.93
2018-03-02T03:08:28.271Z,-9.95
2018-03-02T03:10:55.784Z,-10.03
2018-03-02T03:13:23.374Z,-10.09
2018-03-02T03:15:51.010Z,-10.08
2018-03-02T03:18:18.670Z,-10.04
2018-03-02T03:20:46.145Z,-10.06
2018-03-02T03:23:13.823Z,-10.11
2018-03-02T03:25:41.347Z,-10.07
2018-03-02T03:28:08.952Z,-10.15
2018-03-02T03:30:36.475Z,-10.18
2018-03-02T03:33:04.090Z,-10.24
2018-03-02T03:35:32.626Z,-10.21
2018-03-02T03:38:00.291Z,-10.28
2018-03-02T03:40:27.830Z,-10.24
2018-03-02T03:42:55.397Z,-10.16
2018-03-02T03:45:22.916Z,-10.31
2018-03-02T03:47:50.434Z,-10.24
2018-03-02T03:50:17.955Z,-10.27
2018-03-02T03:52:45.497Z,-10.34
2018-03-02T03:55:13.007Z,-10.35
2018-03-02T03:57:40.525Z,-10.32
2018-03-02T04:00:08.026Z,-10.31
2018-03-02T04:02:35.543Z,-10.34
2018-03-02T04:05:03.064Z,-10.35
2018-03-02T04:07:30.603Z,-10.44
2018-03-02T04:09:58.107Z,-10.41
2018-03-02T04:12:25.637Z,-10.46
2018-03-02T04:14:53.262Z,-10.45
2018-03-02T04:17:20.792Z,-10.37
2018-03-02T04:19:48.318Z,-10.46
2018-03-02T04:22:15.857Z,-10.45
2018-03-02T04:24:43.375Z,-10.40
2018-03-02T04:27:10.915Z,-10.50
2018-03-02T04:29:38.435Z,-10.46
2018-03-02T04:32:05.947Z,-10.56
2018-03-02T04:34:33.497Z,-10.60
2018-03-02T04:37:01.062Z,-10.61
2018-03-02T04:39:28.579Z,-10.57
2018-03-02T04:41:56.094Z,-10.61
2018-03-02T04:44:23.615Z,-10.58
2018-03-02T04:46:51.176Z,-10.63
2018-03-02T04:49:18.750Z,-10.57
2018-03-02T04:51:46.270Z,-10.53
2018-03-02T04:54:13.825Z,-10.72
2018-03-02T04:56:41.392Z,-10.68
2018-03-02T04:59:09.002Z,-10.75
2018-03-02T05:01:36.549Z,-10.63
2018-03-02T05:04:04.043Z,-10.69
2018-03-02T05:06:31.599Z,-10.57
2018-03-02T05:08:59.147Z,-10.62
2018-03-02T05:11:26.654Z,-10.61
2018-03-02T05:13:54.172Z,-10.62
2018-03-02T05:16:21.685Z,-10.63
2018-03-02T05:18:49.223Z,-10.69
2018-03-02T05:21:16.722Z,-10.73
2018-03-02T05:23:44.221Z,-10.82
2018-03-02T05:26:11.735Z,-10.76
2018-03-02T05:28:39.273Z,-10.86
2018-03-02T05:31:06.762Z,-10.87
2018-03-02T05:33:34.300Z,-10.84
2018-03-02T05:36:01.826Z,-10.96
2018-03-02T05:38:29.808Z,-11.01
2018-03-02T05:40:57.550Z,-10.97
2018-03-02T05:43:25.183Z,-11.03
2018-03-02T05:45:52.706Z,-10.98
2018-03-02T05:48:20.214Z,-11.09
2018-03-02T05:50:47.952Z,-10.97
2018-03-02T05:53:15.759Z,-11.04
2018-03-02T05:55:43.797Z,-11.01
2018-03-02T05:58:13.316Z,-11.11
2018-03-02T06:00:40.914Z,-11.04
2018-03-02T06:03:08.522Z,-11.04
2018-03-02T06:05:36.073Z,-11.16
2018-03-02T06:08:03.949Z,-11.17
2018-03-02T06:10:31.635Z,-11.14
2018-03-02T06:12:59.302Z,-11.06
2018-03-02T06:15:27.074Z,-11.05
2018-03-02T06:17:54.809Z,-11.05
2018-03-02T06:20:25.012Z,-11.11
2018-03-02T06:22:52.968Z,-11.16
2018-03-02T06:25:20.826Z,-11.16
2018-03-02T06:27:48.428Z,-11.13
2018-03-02T06:30:15.937Z,-11.04
2018-03-02T06:32:43.640Z,-11.10
2018-03-02T06:35:12.137Z,-11.06
2018-03-02T06:37:39.682Z,-10.94
2018-03-02T06:40:07.397Z,-10.94
2018-03-02T06:42:34.947Z,-10.63
2018-03-02T06:45:02.490Z,-10.65
2018-03-02T06:47:30.096Z,-10.83
2018-03-02T06:49:57.683Z,-10.72
2018-03-02T06:52:25.348Z,-10.22
2018-03-02T06:54:52.905Z,-10.06
2018-03-02T06:57:20.713Z,-9.88
2018-03-02T06:59:48.295Z,-10.35
2018-03-02T07:02:15.804Z,-10.06
2018-03-02T07:04:43.360Z,-10.23
2018-03-02T07:07:10.903Z,-10.23
2018-03-02T07:09:38.536Z,-10.16
2018-03-02T07:12:06.097Z,-10.15
2018-03-02T07:14:33.746Z,-10.11
2018-03-02T07:17:01.407Z,-10.19
2018-03-02T07:19:29.126Z,-10.21
2018-03-02T07:21:56.684Z,-9.99
2018-03-02T07:24:24.321Z,-9.82
2018-03-02T07:26:51.878Z,-10.33
2018-03-02T07:29:19.376Z,-10.01
2018-03-02T07:31:46.985Z,-10.09
2018-03-02T07:34:14.592Z,-9.83
2018-03-02T07:36:42.099Z,-9.81
2018-03-02T07:39:09.641Z,-9.64
2018-03-02T07:41:37.142Z,-9.43
2018-03-02T07:44:04.657Z,-9.71
2018-03-02T07:46:32.222Z,-9.31
2018-03-02T07:48:59.740Z,-9.32
2018-03-02T07:51:27.312Z,-9.51
2018-03-02T07:53:54.832Z,-9.43
2018-03-02T07:56:22.332Z,-9.43
2018-03-02T07:58:49.876Z,-8.77
2018-03-02T08:01:17.408Z,-8.83
2018-03-02T08:03:44.921Z,-8.72
2018-03-02T08:06:12.436Z,-8.94
2018-03-02T08:08:39.983Z,-9.02
2018-03-02T08:11:07.500Z,-8.96
2018-03-02T08:13:35.026Z,-8.20
2018-03-02T08:16:02.556Z,-8.44
2018-03-02T08:18:30.074Z,-8.09
2018-03-02T08:20:57.609Z,-7.31
2018-03-02T08:23:25.107Z,-7.19
2018-03-02T08:25:52.587Z,-7.22
2018-03-02T08:28:20.108Z,-6.73
2018-03-02T08:30:47.616Z,-7.28
2018-03-02T08:33:15.163Z,-7.05
2018-03-02T08:35:42.765Z,-6.68
2018-03-02T08:38:10.270Z,-6.86
2018-03-02T08:40:37.815Z,-6.22
2018-03-02T08:43:05.412Z,-6.18
2018-03-02T08:45:32.982Z,-6.57
2018-03-02T08:48:00.531Z,-6.46
2018-03-02T08:50:28.064Z,-6.61
2018-03-02T08:52:55.658Z,-6.13
2018-03-02T08:55:23.186Z,-5.93
2018-03-02T08:57:50.901Z,-5.53
2018-03-02T09:00:18.464Z,-5.08
2018-03-02T09:02:46.577Z,-5.07
2018-03-02T09:05:14.128Z,-6.06
2018-03-02T09:07:41.656Z,-5.94
2018-03-02T09:10:09.205Z,-5.55
2018-03-02T09:12:36.763Z,-6.52
2018-03-02T09:15:04.287Z,-6.95
2018-03-02T09:17:31.849Z,-6.63
2018-03-02T09:19:59.401Z,-6.56
2018-03-02T09:22:26.900Z,-6.60
2018-03-02T09:24:54.409Z,-6.58
2018-03-02T09:27:21.965Z,-6.00
2018-03-02T09:29:49.507Z,-5.79
2018-03-02T09:32:17.021Z,-5.84
2018-03-02T09:34:46.884Z,-6.19
2018-03-02T09:37:14.418Z,-5.84
2018-03-02T09:39:41.922Z,-6.51
2018-03-02T09:42:09.412Z,-5.97
2018-03-02T09:44:36.932Z,-6.29
2018-03-02T09:47:04.491Z,-5.87
2018-03-02T09:49:32.106Z,-6.01
2018-03-02T09:51:59.664Z,-6.08
2018-03-02T09:54:27.194Z,-5.86
2018-03-02T09:56:54.733Z,-5.84
2018-03-02T09:59:25.331Z,-5.79
2018-03-02T10:01:53.441Z,-5.42
2018-03-02T10:04:21.727Z,-5.24
2018-03-02T10:06:49.268Z,-5.44
2018-03-02T10:09:16.776Z,-5.36
2018-03-02T10:11:46.009Z,-5.50
2018-03-02T10:14:14.835Z,-5.39
2018-03-02T10:16:42.478Z,-5.36
2018-03-02T10:19:10.656Z,-5.06
2018-03-02T10:21:38.169Z,-4.72
2018-03-02T10:24:07.083Z,-4.81
2018-03-02T10:26:35.201Z,-4.87
2018-03-02T10:29:05.222Z,-5.06
2018-03-02T10:31:32.754Z,-4.55
2018-03-02T10:34:01.327Z,-4.90
2018-03-02T10:36:29.000Z,-4.55
2018-03-02T10:38:56.507Z,-4.20
2018-03-02T10:41:24.888Z,-4.50
2018-03-02T10:43:52.408Z,-4.35
2018-03-02T10:46:19.901Z,-4.69
2018-03-02T10:48:47.436Z,-4.38
2018-03-02T10:51:18.284Z,-4.54
2018-03-02T10:53:47.676Z,-4.49
2018-03-02T10:56:15.231Z,-4.42
2018-03-02T10:58:43.711Z,-4.38
2018-03-02T11:01:12.860Z,-4.22
2018-03-02T11:03:46.199Z,-4.26
2018-03-02T11:06:13.839Z,-4.06
2018-03-02T11:08:41.354Z,-4.03
2018-03-02T11:11:08.876Z,-4.04
2018-03-02T11:13:36.428Z,-3.99
2018-03-02T11:16:04.194Z,-4.05
2018-03-02T11:18:31.708Z,-3.88
2018-03-02T11:20:59.214Z,-3.65
2018-03-02T11:23:26.762Z,-4.04
2018-03-02T11:25:54.290Z,-3.69
2018-03-02T11:28:21.782Z,-4.11
2018-03-02T11:30:54.507Z,-3.72
2018-03-02T11:33:23.352Z,-3.73
2018-03-02T11:35:50.842Z,-3.48
2018-03-02T11:38:20.455Z,-3.31
2018-03-02T11:40:48.996Z,-3.11
2018-03-02T11:43:16.528Z,-3.32
2018-03-02T11:45:44.080Z,-3.27
2018-03-02T11:48:11.623Z,-3.42
2018-03-02T11:50:39.138Z,-3.53
2018-03-02T11:53:06.661Z,-3.47
2018-03-02T11:55:34.176Z,-3.29
2018-03-02T11:58:01.683Z,-3.34
2018-03-02T12:00:29.486Z,-3.43
2018-03-02T12:02:56.991Z,-3.20
2018-03-02T12:05:24.620Z,-3.40
2018-03-02T12:07:52.339Z,-3.57
2018-03-02T12:10:20.334Z,-3.49
2018-03-02T12:12:48.114Z,-3.23
2018-03-02T12:15:15.720Z,-3.19
2018-03-02T12:17:43.398Z,-2.99
2018-03-02T12:20:11.198Z,-2.90
2018-03-02T12:22:39.254Z,-2.82
2018-03-02T12:25:07.051Z,-3.07
2018-03-02T12:27:34.822Z,-3.08
2018-03-02T12:30:02.583Z,-3.18
2018-03-02T12:32:30.440Z,-3.23
2018-03-02T12:34:58.248Z,-3.16
2018-03-02T12:37:26.682Z,-3.14
2018-03-02T12:39:54.509Z,-3.24
2018-03-02T12:42:22.392Z,-3.11
2018-03-02T12:44:50.234Z,-2.95
2018-03-02T12:47:17.957Z,-2.90
2018-03-02T12:49:45.809Z,-2.86
2018-03-02T12:52:13.441Z,-2.89
2018-03-02T12:54:41.377Z,-2.94
2018-03-02T12:57:13.708Z,-2.92
2018-03-02T12:59:42.300Z,-2.84
2018-03-02T13:02:09.973Z,-2.85
2018-03-02T13:04:38.542Z,-2.91
2018-03-02T13:07:07.091Z,-2.89
2018-03-02T13:09:35.755Z,-2.72
2018-03-02T13:12:04.172Z,-2.52
2018-03-02T13:14:32.768Z,-2.59
2018-03-02T13:17:01.941Z,-2.70
2018-03-02T13:19:30.092Z,-2.74
2018-03-02T13:21:57.913Z,-2.88
2018-03-02T13:24:25.697Z,-2.86
2018-03-02T13:27:07.268Z,-2.85
2018-03-02T13:29:36.067Z,-2.59
2018-03-02T13:32:03.930Z,-2.72
2018-03-02T13:50:31.189Z,-2.58
2018-03-02T13:52:59.166Z,-2.51
2018-03-02T13:55:26.949Z,-2.71
2018-03-02T13:58:05.435Z,-2.50
2018-03-02T14:00:33.070Z,-2.49
2018-03-02T14:03:12.716Z,-2.58
2018-03-02T14:05:40.325Z,-2.45
2018-03-02T14:08:08.096Z,-2.31
2018-03-02T14:10:35.682Z,-2.26
2018-03-02T14:13:03.252Z,-2.25
2018-03-02T14:15:30.768Z,-2.54
2018-03-02T14:17:58.342Z,-2.35
2018-03-02T14:20:25.867Z,-2.22
2018-03-02T14:22:53.385Z,-2.72
2018-03-02T14:25:20.913Z,-2.67
2018-03-02T14:30:33.934Z,-2.65
2018-03-02T14:33:01.461Z,-2.54
2018-03-02T14:35:32.224Z,-2.65
2018-03-02T14:37:59.754Z,-2.46
2018-03-02T14:40:28.281Z,-2.67
2018-03-02T14:42:55.779Z,-2.78
2018-03-02T14:45:23.422Z,-2.79
2018-03-02T14:47:52.328Z,-2.80
2018-03-02T14:50:19.846Z,-2.59
2018-03-02T14:52:48.944Z,-2.50
2018-03-02T14:55:16.461Z,-2.52
2018-03-02T14:57:48.370Z,-2.64
2018-03-02T15:09:55.920Z,-2.38
2018-03-02T15:12:23.417Z,-2.42
2018-03-02T15:14:50.962Z,-2.45
2018-03-02T15:17:19.405Z,-2.65
2018-03-02T15:19:47.593Z,-2.59
2018-03-02T15:22:15.232Z,-2.74
2018-03-02T15:24:42.840Z,-2.73
2018-03-02T15:27:10.411Z,-2.62
2018-03-02T15:29:37.967Z,-2.52
2018-03-02T15:32:05.646Z,-2.48
2018-03-02T15:34:33.445Z,-2.61
2018-03-02T15:37:00.938Z,-2.71
2018-03-02T15:39:28.472Z,-2.81
2018-03-02T15:41:56.046Z,-2.71
2018-03-02T15:44:23.586Z,-2.67
2018-03-02T15:46:51.101Z,-2.76
2018-03-02T15:49:18.711Z,-2.88
2018-03-02T15:51:46.326Z,-2.78
2018-03-02T15:54:13.880Z,-2.87
2018-03-02T15:56:41.460Z,-2.78
2018-03-02T15:59:08.974Z,-2.80
2018-03-02T16:01:36.473Z,-2.77
2018-03-02T16:04:04.054Z,-2.85
2018-03-02T16:06:32.410Z,-2.85
2018-03-02T16:08:59.961Z,-2.96
2018-03-02T16:11:27.492Z,-3.00
2018-03-02T16:13:55.036Z,-3.01
2018-03-02T16:16:22.589Z,-2.99
2018-03-02T16:18:50.108Z,-3.00
2018-03-02T16:21:17.744Z,-3.11
2018-03-02T16:23:45.609Z,-3.22
2018-03-02T16:26:13.177Z,-3.24
2018-03-02T16:28:40.704Z,-3.24
2018-03-02T16:31:08.512Z,-3.20
2018-03-02T16:33:36.293Z,-3.25
2018-03-02T16:36:04.171Z,-3.35
2018-03-02T16:38:31.943Z,-3.44
2018-03-02T16:40:59.851Z,-3.40
2018-03-02T16:43:27.441Z,-3.45
2018-03-02T16:45:55.173Z,-3.51
2018-03-02T16:48:23.672Z,-3.58
2018-03-02T16:50:51.419Z,-3.65
2018-03-02T16:53:20.052Z,-3.67
2018-03-02T16:55:47.793Z,-3.68
2018-03-02T16:58:15.644Z,-3.77
2018-03-02T17:00:43.716Z,-3.84
2018-03-02T17:03:11.835Z,-3.81
2018-03-02T17:05:39.811Z,-3.91
2018-03-02T17:08:07.623Z,-3.94
2018-03-02T17:10:35.218Z,-3.89
2018-03-02T17:13:03.785Z,-3.92
2018-03-02T17:15:31.708Z,-3.98
2018-03-02T17:17:59.611Z,-4.02
2018-03-02T17:20:27.788Z,-3.95
2018-03-02T17:22:55.635Z,-4.01
2018-03-02T17:25:23.518Z,-4.05
2018-03-02T17:27:51.712Z,-4.14
2018-03-02T17:30:19.539Z,-4.13
2018-03-02T17:32:47.873Z,-4.17
2018-03-02T17:35:15.963Z,-4.13
2018-03-02T17:37:44.319Z,-4.20
2018-03-02T17:40:12.165Z,-4.26
2018-03-02T17:42:39.955Z,-4.19
2018-03-02T17:45:07.805Z,-4.28
2018-03-02T17:47:35.562Z,-4.24
2018-03-02T17:50:03.426Z,-4.22
2018-03-02T17:52:31.312Z,-4.27
2018-03-02T17:54:59.182Z,-4.30
2018-03-02T17:57:26.924Z,-4.40
2018-03-02T17:59:54.737Z,-4.48
2018-03-02T18:02:25.556Z,-4.47
2018-03-02T18:04:53.127Z,-4.53
2018-03-02T18:07:20.670Z,-4.58
2018-03-02T18:09:48.181Z,-4.59
2018-03-02T18:12:15.686Z,-4.61
2018-03-02T18:14:43.666Z,-4.67
2018-03-02T18:17:11.413Z,-4.72
2018-03-02T18:19:39.193Z,-4.80
2018-03-02T18:22:07.006Z,-4.79
2018-03-02T18:24:35.350Z,-4.80
2018-03-02T18:27:03.085Z,-4.85
2018-03-02T18:29:30.889Z,-4.92
2018-03-02T18:31:58.667Z,-4.95
2018-03-02T18:34:26.487Z,-4.97
2018-03-02T18:36:54.245Z,-5.01
2018-03-02T18:39:22.006Z,-5.02
2018-03-02T18:41:49.759Z,-5.11
2018-03-02T18:44:17.489Z,-5.20
2018-03-02T18:46:45.386Z,-5.24
2018-03-02T18:49:13.240Z,-5.27
2018-03-02T18:51:41.114Z,-5.37
2018-03-02T18:54:08.936Z,-5.42
2018-03-02T18:56:36.856Z,-5.41
2018-03-02T18:59:04.668Z,-5.47
2018-03-02T19:01:38.116Z,-5.50
2018-03-02T19:04:06.090Z,-5.51
2018-03-02T19:06:34.798Z,-5.54
2018-03-02T19:09:02.657Z,-5.57
2018-03-02T19:11:30.431Z,-5.58
2018-03-02T19:13:58.155Z,-5.67
2018-03-02T19:16:26.769Z,-5.69
2018-03-02T19:18:54.613Z,-5.71
2018-03-02T19:21:22.411Z,-5.71
2018-03-02T19:23:50.139Z,-5.69
2018-03-02T19:26:17.903Z,-5.69
2018-03-02T19:28:45.823Z,-5.72
2018-03-02T19:31:15.497Z,-5.64
2018-03-02T19:33:43.513Z,-5.68
2018-03-02T19:36:15.143Z,-5.70
2018-03-02T19:38:44.560Z,-5.73
2018-03-02T19:41:13.761Z,-5.77
2018-03-02T19:43:41.700Z,-5.76
2018-03-02T19:46:09.546Z,-5.80
2018-03-02T19:48:37.503Z,-5.86
2018-03-02T19:51:05.230Z,-5.88
2018-03-02T19:53:33.035Z,-5.88
2018-03-02T19:56:00.805Z,-5.95
2018-03-02T19:58:28.560Z,-5.90
2018-03-02T20:00:56.122Z,-5.94
2018-03-02T20:03:23.714Z,-5.92
2018-03-02T20:05:51.548Z,-6.03
2018-03-02T20:08:19.245Z,-6.03
2018-03-02T20:10:46.877Z,-6.05
2018-03-02T20:13:14.581Z,-6.04
2018-03-02T20:15:42.330Z,-5.99
2018-03-02T20:18:10.039Z,-6.09
2018-03-02T20:20:37.597Z,-6.06
2018-03-02T20:23:05.117Z,-6.11
2018-03-02T20:25:32.728Z,-6.05
2018-03-02T20:28:00.433Z,-6.02
2018-03-02T20:30:28.086Z,-6.02
2018-03-02T20:32:55.816Z,-5.98
2018-03-02T20:35:23.503Z,-6.00
2018-03-02T20:37:52.541Z,-6.06
2018-03-02T20:40:20.381Z,-6.09
2018-03-02T20:42:48.190Z,-6.10
2018-03-02T20:45:15.874Z,-6.08
2018-03-02T20:47:43.727Z,-6.13
2018-03-02T20:50:11.435Z,-6.19
2018-03-02T20:52:39.312Z,-6.15
2018-03-02T20:55:07.320Z,-6.18
2018-03-02T20:57:34.962Z,-6.26
2018-03-02T21:00:03.139Z,-6.21
2018-03-02T21:02:30.855Z,-6.24
2018-03-02T21:04:59.488Z,-6.29
2018-03-02T21:07:27.428Z,-6.25
2018-03-02T21:09:55.540Z,-6.35
2018-03-02T21:12:23.153Z,-6.33
2018-03-02T21:14:50.657Z,-6.38
2018-03-02T21:17:18.161Z,-6.37
2018-03-02T21:19:45.759Z,-6.39
2018-03-02T21:22:13.837Z,-6.47
2018-03-02T21:24:41.445Z,-6.48
2018-03-02T21:27:09.127Z,-6.53
2018-03-02T21:29:36.896Z,-6.54
2018-03-02T21:32:04.770Z,-6.50
2018-03-02T21:34:33.019Z,-6.48
2018-03-02T21:37:00.883Z,-6.58
2018-03-02T21:39:28.905Z,-6.52
2018-03-02T21:41:57.290Z,-6.59
2018-03-02T21:44:25.569Z,-6.57
2018-03-02T21:46:53.872Z,-6.57
2018-03-02T21:49:21.593Z,-6.55
2018-03-02T21:51:49.488Z,-6.62
2018-03-02T21:54:17.764Z,-6.69
2018-03-02T21:56:45.569Z,-6.71
2018-03-02T21:59:13.483Z,-6.62
2018-03-02T22:01:41.486Z,-6.59
2018-03-02T22:04:09.353Z,-6.66
2018-03-02T22:06:37.226Z,-6.60
2018-03-02T22:09:05.049Z,-6.62
2018-03-02T22:11:32.829Z,-6.59
2018-03-02T22:14:00.708Z,-6.67
2018-03-02T22:16:29.130Z,-6.61
2018-03-02T22:18:56.918Z,-6.62
2018-03-02T22:21:24.780Z,-6.61
2018-03-02T22:23:52.862Z,-6.66
2018-03-02T22:26:20.650Z,-6.72
2018-03-02T22:28:48.612Z,-6.69
2018-03-02T22:31:16.636Z,-6.72
2018-03-02T22:33:44.464Z,-6.72
2018-03-02T22:36:13.210Z,-6.75
2018-03-02T22:38:40.893Z,-6.67
2018-03-02T22:41:08.765Z,-6.78
2018-03-02T22:43:36.678Z,-6.73
2018-03-02T22:46:04.594Z,-6.75
2018-03-02T22:48:32.547Z,-6.66
2018-03-02T22:51:00.175Z,-6.75
2018-03-02T22:53:28.115Z,-6.77
2018-03-02T22:55:55.892Z,-6.78
2018-03-02T22:58:23.688Z,-6.84
2018-03-02T23:00:51.449Z,-6.87
2018-03-02T23:03:19.438Z,-6.82
2018-03-02T23:05:47.316Z,-6.87
2018-03-02T23:08:15.100Z,-6.87
2018-03-02T23:10:42.910Z,-6.94
2018-03-02T23:13:10.565Z,-6.89
2018-03-02T23:15:38.417Z,-6.96
2018-03-02T23:18:06.036Z,-6.90
2018-03-02T23:20:33.807Z,-6.92
2018-03-02T23:23:01.408Z,-6.93
2018-03-02T23:25:28.961Z,-7.00
2018-03-02T23:27:56.509Z,-6.98
2018-03-02T23:30:24.137Z,-6.98
2018-03-02T23:32:51.665Z,-6.95
2018-03-02T23:35:19.182Z,-6.97
2018-03-02T23:37:46.736Z,-6.98
2018-03-02T23:40:14.271Z,-7.00
2018-03-02T23:42:41.786Z,-7.11
2018-03-02T23:45:09.282Z,-7.11
2018-03-02T23:47:36.919Z,-7.10
2018-03-02T23:50:04.509Z,-7.27
2018-03-02T23:52:32.002Z,-7.18
2018-03-02T23:54:59.545Z,-7.24
2018-03-02T23:57:27.062Z,-7.23
2018-03-02T23:59:54.591Z,-7.22
